sensor_id;sensor_type;location;lat;lon;timestamp;P1;durP1;ratioP1;P2;durP2;ratioP2
7169;SDS011;3626;42.656;23.312;2023-03-14T00:00:06;27.50;;;11.40;;
7169;SDS011;3626;42.656;23.312;2023-03-14T00:00:14;26.83;;;11.36;;
7169;SDS011;3626;42.656;23.312;2023-03-14T00:00:20;24.12;;;10.98;;
7169;SDS011;3626;42.656;23.312;2023-03-14T00:00:27;22.70;;;10.83;;
7169;SDS011;3626;42.656;23.312;2023-03-14T00:00:33;21.27;;;10.68;;
7169;SDS011;3626;42.656;23.312;2023-03-14T00:00:39;21.35;;;10.55;;
7169;SDS011;3626;42.656;23.312;2023-03-14T00:00:45;21.23;;;10.32;;
7169;SDS011;3626;42.656;23.312;2023-03-14T00:00:51;21.95;;;10.30;;
7169;SDS011;3626;42.656;23.312;2023-03-14T00:00:57;22.93;;;10.17;;
7169;SDS011;3626;42.656;23.312;2023-03-14T00:01:13;22.30;;;9.90;;
7169;SDS011;3626;42.656;23.312;2023-03-14T00:01:20;22.70;;;9.91;;
7169;SDS011;3626;42.656;23.312;2023-03-14T00:01:26;23.98;;;10.02;;
7169;SDS011;3626;42.656;23.312;2023-03-14T00:01:32;24.72;;;10.10;;
7169;SDS011;3626;42.656;23.312;2023-03-14T00:01:38;23.85;;;10.05;;
7169;SDS011;3626;42.656;23.312;2023-03-14T00:01:44;24.55;;;10.20;;
7169;SDS011;3626;42.656;23.312;2023-03-14T00:01:50;25.00;;;10.23;;
7169;SDS011;3626;42.656;23.312;2023-03-14T00:01:56;25.13;;;10.40;;
7169;SDS011;3626;42.656;23.312;2023-03-14T00:02:03;25.20;;;10.64;;
7169;SDS011;3626;42.656;23.312;2023-03-14T00:02:09;25.67;;;10.93;;
7169;SDS011;3626;42.656;23.312;2023-03-14T00:02:15;25.88;;;11.10;;
7169;SDS011;3626;42.656;23.312;2023-03-14T00:02:21;25.95;;;11.48;;
7169;SDS011;3626;42.656;23.312;2023-03-14T00:02:27;26.25;;;11.57;;
7169;SDS011;3626;42.656;23.312;2023-03-14T00:02:33;26.55;;;11.70;;
7169;SDS011;3626;42.656;23.312;2023-03-14T00:02:41;27.33;;;11.70;;
7169;SDS011;3626;42.656;23.312;2023-03-14T00:02:51;25.97;;;11.60;;
7169;SDS011;3626;42.656;23.312;2023-03-14T00:02:57;25.42;;;11.48;;
7169;SDS011;3626;42.656;23.312;2023-03-14T00:03:03;25.00;;;11.30;;
7169;SDS011;3626;42.656;23.312;2023-03-14T00:03:09;25.05;;;11.02;;
7169;SDS011;3626;42.656;23.312;2023-03-14T00:03:15;24.67;;;10.70;;
7169;SDS011;3626;42.656;23.312;2023-03-14T00:03:21;23.95;;;10.40;;
7169;SDS011;3626;42.656;23.312;2023-03-14T00:03:28;23.00;;;10.20;;
7169;SDS011;3626;42.656;23.312;2023-03-14T00:03:37;23.46;;;10.11;;
7169;SDS011;3626;42.656;23.312;2023-03-14T00:03:43;23.10;;;10.05;;
7169;SDS011;3626;42.656;23.312;2023-03-14T00:03:51;22.70;;;10.00;;
7169;SDS011;3626;42.656;23.312;2023-03-14T00:03:57;21.75;;;9.80;;
7169;SDS011;3626;42.656;23.312;2023-03-14T00:04:04;21.78;;;9.82;;
7169;SDS011;3626;42.656;23.312;2023-03-14T00:04:10;22.77;;;10.05;;
7169;SDS011;3626;42.656;23.312;2023-03-14T00:04:16;23.93;;;10.27;;
7169;SDS011;3626;42.656;23.312;2023-03-14T00:04:22;23.90;;;10.30;;
7169;SDS011;3626;42.656;23.312;2023-03-14T00:04:28;24.57;;;10.47;;
7169;SDS011;3626;42.656;23.312;2023-03-14T00:04:34;24.10;;;10.55;;
7169;SDS011;3626;42.656;23.312;2023-03-14T00:04:40;23.95;;;10.43;;
7169;SDS011;3626;42.656;23.312;2023-03-14T00:04:46;24.23;;;10.50;;
7169;SDS011;3626;42.656;23.312;2023-03-14T00:04:53;25.55;;;10.55;;
7169;SDS011;3626;42.656;23.312;2023-03-14T00:05:00;27.43;;;10.67;;
7169;SDS011;3626;42.656;23.312;2023-03-14T00:05:08;26.13;;;10.57;;
7169;SDS011;3626;42.656;23.312;2023-03-14T00:05:16;24.54;;;10.60;;
7169;SDS011;3626;42.656;23.312;2023-03-14T00:05:22;25.20;;;10.60;;
7169;SDS011;3626;42.656;23.312;2023-03-14T00:05:28;24.83;;;10.60;;
7169;SDS011;3626;42.656;23.312;2023-03-14T00:05:34;23.55;;;10.35;;
7169;SDS011;3626;42.656;23.312;2023-03-14T00:05:40;23.10;;;10.40;;
7169;SDS011;3626;42.656;23.312;2023-03-14T00:05:46;23.55;;;10.48;;
7169;SDS011;3626;42.656;23.312;2023-03-14T00:05:52;23.67;;;10.60;;
7169;SDS011;3626;42.656;23.312;2023-03-14T00:06:01;22.75;;;10.57;;
7169;SDS011;3626;42.656;23.312;2023-03-14T00:06:08;22.40;;;10.53;;
7169;SDS011;3626;42.656;23.312;2023-03-14T00:06:16;22.52;;;10.28;;
7169;SDS011;3626;42.656;23.312;2023-03-14T00:06:23;21.77;;;10.03;;
7169;SDS011;3626;42.656;23.312;2023-03-14T00:06:29;21.52;;;9.90;;
7169;SDS011;3626;42.656;23.312;2023-03-14T00:06:36;22.43;;;10.10;;
7169;SDS011;3626;42.656;23.312;2023-03-14T00:06:42;22.15;;;9.90;;
7169;SDS011;3626;42.656;23.312;2023-03-14T00:06:52;20.23;;;9.50;;
7169;SDS011;3626;42.656;23.312;2023-03-14T00:06:57;20.00;;;9.60;;
7169;SDS011;3626;42.656;23.312;2023-03-14T00:07:03;19.92;;;9.50;;
7169;SDS011;3626;42.656;23.312;2023-03-14T00:07:10;19.85;;;9.50;;
7169;SDS011;3626;42.656;23.312;2023-03-14T00:07:16;20.37;;;9.73;;
7169;SDS011;3626;42.656;23.312;2023-03-14T00:07:22;20.33;;;9.85;;
7169;SDS011;3626;42.656;23.312;2023-03-14T00:07:29;20.53;;;9.97;;
7169;SDS011;3626;42.656;23.312;2023-03-14T00:07:43;20.95;;;9.96;;
7169;SDS011;3626;42.656;23.312;2023-03-14T00:07:49;21.00;;;10.10;;
7169;SDS011;3626;42.656;23.312;2023-03-14T00:07:54;21.58;;;10.18;;
7169;SDS011;3626;42.656;23.312;2023-03-14T00:08:01;22.23;;;10.23;;
7169;SDS011;3626;42.656;23.312;2023-03-14T00:08:07;22.75;;;10.50;;
7169;SDS011;3626;42.656;23.312;2023-03-14T00:08:13;22.85;;;10.57;;
7169;SDS011;3626;42.656;23.312;2023-03-14T00:08:19;23.20;;;10.50;;
7169;SDS011;3626;42.656;23.312;2023-03-14T00:08:26;23.80;;;10.67;;
7169;SDS011;3626;42.656;23.312;2023-03-14T00:08:32;24.23;;;10.88;;
7169;SDS011;3626;42.656;23.312;2023-03-14T00:08:39;24.40;;;10.95;;
7169;SDS011;3626;42.656;23.312;2023-03-14T00:08:45;24.70;;;11.02;;
7169;SDS011;3626;42.656;23.312;2023-03-14T00:08:51;25.13;;;11.37;;
7169;SDS011;3626;42.656;23.312;2023-03-14T00:08:59;24.87;;;11.30;;
7169;SDS011;3626;42.656;23.312;2023-03-14T00:09:05;24.58;;;11.15;;
7169;SDS011;3626;42.656;23.312;2023-03-14T00:09:11;23.87;;;10.80;;
7169;SDS011;3626;42.656;23.312;2023-03-14T00:09:18;24.86;;;11.02;;
7169;SDS011;3626;42.656;23.312;2023-03-14T00:09:24;24.53;;;10.97;;
7169;SDS011;3626;42.656;23.312;2023-03-14T00:09:31;24.22;;;10.76;;
7169;SDS011;3626;42.656;23.312;2023-03-14T00:09:37;23.40;;;10.52;;
7169;SDS011;3626;42.656;23.312;2023-03-14T00:09:43;23.65;;;10.68;;
7169;SDS011;3626;42.656;23.312;2023-03-14T00:09:49;26.05;;;10.55;;
7169;SDS011;3626;42.656;23.312;2023-03-14T00:09:55;26.03;;;10.50;;
7169;SDS011;3626;42.656;23.312;2023-03-14T00:10:02;25.73;;;10.65;;
7169;SDS011;3626;42.656;23.312;2023-03-14T00:10:11;26.27;;;10.53;;
7169;SDS011;3626;42.656;23.312;2023-03-14T00:10:18;24.74;;;10.26;;
7169;SDS011;3626;42.656;23.312;2023-03-14T00:10:24;24.63;;;10.23;;
7169;SDS011;3626;42.656;23.312;2023-03-14T00:10:30;24.55;;;10.32;;
7169;SDS011;3626;42.656;23.312;2023-03-14T00:10:36;24.50;;;10.40;;
7169;SDS011;3626;42.656;23.312;2023-03-14T00:10:42;24.20;;;10.13;;
7169;SDS011;3626;42.656;23.312;2023-03-14T00:10:48;23.15;;;10.02;;
7169;SDS011;3626;42.656;23.312;2023-03-14T00:10:57;23.46;;;10.11;;
7169;SDS011;3626;42.656;23.312;2023-03-14T00:11:04;23.57;;;10.00;;
7169;SDS011;3626;42.656;23.312;2023-03-14T00:11:11;23.67;;;10.17;;
7169;SDS011;3626;42.656;23.312;2023-03-14T00:11:20;22.97;;;10.09;;
7169;SDS011;3626;42.656;23.312;2023-03-14T00:11:27;22.47;;;9.73;;
7169;SDS011;3626;42.656;23.312;2023-03-14T00:11:32;22.52;;;9.70;;
7169;SDS011;3626;42.656;23.312;2023-03-14T00:11:39;23.05;;;9.75;;
7169;SDS011;3626;42.656;23.312;2023-03-14T00:11:45;22.10;;;10.05;;
7169;SDS011;3626;42.656;23.312;2023-03-14T00:11:52;20.17;;;9.83;;
7169;SDS011;3626;42.656;23.312;2023-03-14T00:11:58;19.00;;;9.60;;
7169;SDS011;3626;42.656;23.312;2023-03-14T00:12:04;19.37;;;9.47;;
7169;SDS011;3626;42.656;23.312;2023-03-14T00:12:12;19.80;;;9.50;;
7169;SDS011;3626;42.656;23.312;2023-03-14T00:12:19;20.40;;;9.70;;
7169;SDS011;3626;42.656;23.312;2023-03-14T00:12:26;20.86;;;9.60;;
7169;SDS011;3626;42.656;23.312;2023-03-14T00:12:32;20.53;;;9.30;;
7169;SDS011;3626;42.656;23.312;2023-03-14T00:12:39;20.83;;;9.20;;
7169;SDS011;3626;42.656;23.312;2023-03-14T00:12:45;20.70;;;9.00;;
7169;SDS011;3626;42.656;23.312;2023-03-14T00:12:51;21.10;;;9.10;;
7169;SDS011;3626;42.656;23.312;2023-03-14T00:12:57;21.13;;;9.20;;
7169;SDS011;3626;42.656;23.312;2023-03-14T00:13:03;21.27;;;9.18;;
7169;SDS011;3626;42.656;23.312;2023-03-14T00:13:09;21.55;;;9.30;;
7169;SDS011;3626;42.656;23.312;2023-03-14T00:13:15;21.60;;;9.17;;
7169;SDS011;3626;42.656;23.312;2023-03-14T00:13:21;21.90;;;9.18;;
7169;SDS011;3626;42.656;23.312;2023-03-14T00:13:26;22.55;;;9.48;;
7169;SDS011;3626;42.656;23.312;2023-03-14T00:13:32;22.70;;;9.77;;
7169;SDS011;3626;42.656;23.312;2023-03-14T00:13:38;22.50;;;9.80;;
7169;SDS011;3626;42.656;23.312;2023-03-14T00:13:47;22.50;;;9.97;;
7169;SDS011;3626;42.656;23.312;2023-03-14T00:13:54;22.83;;;9.87;;
7169;SDS011;3626;42.656;23.312;2023-03-14T00:14:00;22.43;;;9.77;;
7169;SDS011;3626;42.656;23.312;2023-03-14T00:14:06;22.76;;;9.80;;
7169;SDS011;3626;42.656;23.312;2023-03-14T00:14:12;22.77;;;9.70;;
7169;SDS011;3626;42.656;23.312;2023-03-14T00:14:20;22.60;;;10.00;;
7169;SDS011;3626;42.656;23.312;2023-03-14T00:14:26;22.17;;;9.85;;
7169;SDS011;3626;42.656;23.312;2023-03-14T00:14:32;21.58;;;9.70;;
7169;SDS011;3626;42.656;23.312;2023-03-14T00:14:38;21.95;;;9.68;;
7169;SDS011;3626;42.656;23.312;2023-03-14T00:14:44;21.67;;;9.50;;
7169;SDS011;3626;42.656;23.312;2023-03-14T00:14:50;21.73;;;9.45;;
7169;SDS011;3626;42.656;23.312;2023-03-14T00:14:56;21.70;;;9.55;;
7169;SDS011;3626;42.656;23.312;2023-03-14T00:15:02;22.50;;;9.60;;
7169;SDS011;3626;42.656;23.312;2023-03-14T00:15:12;21.36;;;9.67;;
7169;SDS011;3626;42.656;23.312;2023-03-14T00:15:18;21.13;;;9.43;;
7169;SDS011;3626;42.656;23.312;2023-03-14T00:15:24;21.37;;;9.33;;
7169;SDS011;3626;42.656;23.312;2023-03-14T00:15:31;22.00;;;9.50;;
7169;SDS011;3626;42.656;23.312;2023-03-14T00:15:37;21.70;;;9.50;;
7169;SDS011;3626;42.656;23.312;2023-03-14T00:15:43;21.40;;;9.40;;
7169;SDS011;3626;42.656;23.312;2023-03-14T00:15:49;20.73;;;9.30;;
7169;SDS011;3626;42.656;23.312;2023-03-14T00:16:01;20.90;;;9.40;;
7169;SDS011;3626;42.656;23.312;2023-03-14T00:16:08;19.70;;;9.20;;
7169;SDS011;3626;42.656;23.312;2023-03-14T00:16:15;19.13;;;9.05;;
7169;SDS011;3626;42.656;23.312;2023-03-14T00:16:21;18.98;;;9.27;;
7169;SDS011;3626;42.656;23.312;2023-03-14T00:16:27;18.05;;;9.23;;
7169;SDS011;3626;42.656;23.312;2023-03-14T00:16:33;17.55;;;9.15;;
7169;SDS011;3626;42.656;23.312;2023-03-14T00:16:39;17.60;;;9.43;;
7169;SDS011;3626;42.656;23.312;2023-03-14T00:16:45;18.05;;;9.52;;
7169;SDS011;3626;42.656;23.312;2023-03-14T00:16:52;17.90;;;9.47;;
7169;SDS011;3626;42.656;23.312;2023-03-14T00:16:58;17.27;;;9.30;;
7169;SDS011;3626;42.656;23.312;2023-03-14T00:17:04;17.08;;;9.23;;
7169;SDS011;3626;42.656;23.312;2023-03-14T00:17:10;16.70;;;9.10;;
7169;SDS011;3626;42.656;23.312;2023-03-14T00:17:18;16.45;;;9.18;;
7169;SDS011;3626;42.656;23.312;2023-03-14T00:17:24;16.10;;;9.00;;
7169;SDS011;3626;42.656;23.312;2023-03-14T00:17:30;16.40;;;9.10;;
7169;SDS011;3626;42.656;23.312;2023-03-14T00:17:37;16.63;;;9.00;;
7169;SDS011;3626;42.656;23.312;2023-03-14T00:17:43;16.67;;;8.80;;
7169;SDS011;3626;42.656;23.312;2023-03-14T00:17:49;17.10;;;8.88;;
7169;SDS011;3626;42.656;23.312;2023-03-14T00:17:55;17.15;;;8.90;;
7169;SDS011;3626;42.656;23.312;2023-03-14T00:18:01;17.58;;;8.95;;
7169;SDS011;3626;42.656;23.312;2023-03-14T00:18:07;18.15;;;9.07;;
7169;SDS011;3626;42.656;23.312;2023-03-14T00:18:15;19.13;;;8.93;;
7169;SDS011;3626;42.656;23.312;2023-03-14T00:18:21;20.10;;;9.00;;
7169;SDS011;3626;42.656;23.312;2023-03-14T00:18:28;20.03;;;8.87;;
7169;SDS011;3626;42.656;23.312;2023-03-14T00:18:34;19.63;;;8.77;;
7169;SDS011;3626;42.656;23.312;2023-03-14T00:18:40;19.15;;;8.60;;
7169;SDS011;3626;42.656;23.312;2023-03-14T00:18:47;18.60;;;8.68;;
7169;SDS011;3626;42.656;23.312;2023-03-14T00:18:54;18.70;;;8.50;;
7169;SDS011;3626;42.656;23.312;2023-03-14T00:19:00;19.03;;;8.60;;
7169;SDS011;3626;42.656;23.312;2023-03-14T00:19:07;18.98;;;8.66;;
7169;SDS011;3626;42.656;23.312;2023-03-14T00:19:13;19.67;;;8.93;;
7169;SDS011;3626;42.656;23.312;2023-03-14T00:19:19;19.42;;;8.95;;
7169;SDS011;3626;42.656;23.312;2023-03-14T00:19:25;19.63;;;9.10;;
7169;SDS011;3626;42.656;23.312;2023-03-14T00:19:31;19.80;;;9.15;;
7169;SDS011;3626;42.656;23.312;2023-03-14T00:19:40;20.41;;;9.21;;
7169;SDS011;3626;42.656;23.312;2023-03-14T00:19:46;21.13;;;9.18;;
7169;SDS011;3626;42.656;23.312;2023-03-14T00:19:52;22.15;;;9.43;;
7169;SDS011;3626;42.656;23.312;2023-03-14T00:19:59;22.23;;;9.60;;
7169;SDS011;3626;42.656;23.312;2023-03-14T00:20:10;21.79;;;9.50;;
7169;SDS011;3626;42.656;23.312;2023-03-14T00:20:16;21.13;;;9.30;;
7169;SDS011;3626;42.656;23.312;2023-03-14T00:20:23;21.00;;;9.30;;
7169;SDS011;3626;42.656;23.312;2023-03-14T00:20:29;21.33;;;9.50;;
7169;SDS011;3626;42.656;23.312;2023-03-14T00:20:35;21.02;;;9.48;;
7169;SDS011;3626;42.656;23.312;2023-03-14T00:20:41;21.27;;;9.50;;
7169;SDS011;3626;42.656;23.312;2023-03-14T00:20:47;20.95;;;9.70;;
7169;SDS011;3626;42.656;23.312;2023-03-14T00:20:53;20.77;;;9.68;;
7169;SDS011;3626;42.656;23.312;2023-03-14T00:20:59;20.70;;;9.75;;
7169;SDS011;3626;42.656;23.312;2023-03-14T00:21:06;20.90;;;9.93;;
7169;SDS011;3626;42.656;23.312;2023-03-14T00:21:16;21.70;;;10.30;;
7169;SDS011;3626;42.656;23.312;2023-03-14T00:21:22;22.93;;;10.50;;
7169;SDS011;3626;42.656;23.312;2023-03-14T00:21:28;22.75;;;10.25;;
7169;SDS011;3626;42.656;23.312;2023-03-14T00:21:34;22.90;;;10.23;;
7169;SDS011;3626;42.656;23.312;2023-03-14T00:21:40;22.33;;;10.23;;
7169;SDS011;3626;42.656;23.312;2023-03-14T00:21:46;22.23;;;10.00;;
7169;SDS011;3626;42.656;23.312;2023-03-14T00:21:52;22.92;;;9.93;;
7169;SDS011;3626;42.656;23.312;2023-03-14T00:21:58;23.05;;;9.75;;
7169;SDS011;3626;42.656;23.312;2023-03-14T00:22:04;23.02;;;9.68;;
7169;SDS011;3626;42.656;23.312;2023-03-14T00:22:10;22.73;;;9.35;;
7169;SDS011;3626;42.656;23.312;2023-03-14T00:22:16;21.75;;;9.07;;
7169;SDS011;3626;42.656;23.312;2023-03-14T00:22:22;21.55;;;9.05;;
7169;SDS011;3626;42.656;23.312;2023-03-14T00:22:28;21.47;;;9.00;;
7169;SDS011;3626;42.656;23.312;2023-03-14T00:22:37;20.79;;;9.14;;
7169;SDS011;3626;42.656;23.312;2023-03-14T00:22:43;20.67;;;9.23;;
7169;SDS011;3626;42.656;23.312;2023-03-14T00:22:49;20.44;;;9.24;;
7169;SDS011;3626;42.656;23.312;2023-03-14T00:22:55;20.08;;;9.32;;
7169;SDS011;3626;42.656;23.312;2023-03-14T00:23:03;20.42;;;9.30;;
7169;SDS011;3626;42.656;23.312;2023-03-14T00:23:09;20.35;;;9.38;;
7169;SDS011;3626;42.656;23.312;2023-03-14T00:23:15;20.00;;;9.48;;
7169;SDS011;3626;42.656;23.312;2023-03-14T00:23:21;18.38;;;9.15;;
7169;SDS011;3626;42.656;23.312;2023-03-14T00:23:27;18.05;;;9.23;;
7169;SDS011;3626;42.656;23.312;2023-03-14T00:23:35;19.53;;;9.33;;
7169;SDS011;3626;42.656;23.312;2023-03-14T00:23:42;19.46;;;9.22;;
7169;SDS011;3626;42.656;23.312;2023-03-14T00:23:48;18.80;;;9.12;;
7169;SDS011;3626;42.656;23.312;2023-03-14T00:23:54;18.05;;;9.10;;
7169;SDS011;3626;42.656;23.312;2023-03-14T00:24:00;18.03;;;9.10;;
7169;SDS011;3626;42.656;23.312;2023-03-14T00:24:06;17.98;;;9.20;;
7169;SDS011;3626;42.656;23.312;2023-03-14T00:24:13;18.56;;;9.16;;
7169;SDS011;3626;42.656;23.312;2023-03-14T00:24:22;19.10;;;9.27;;
7169;SDS011;3626;42.656;23.312;2023-03-14T00:24:28;19.25;;;9.25;;
7169;SDS011;3626;42.656;23.312;2023-03-14T00:24:34;18.00;;;9.05;;
7169;SDS011;3626;42.656;23.312;2023-03-14T00:24:40;18.00;;;9.07;;
7169;SDS011;3626;42.656;23.312;2023-03-14T00:24:46;18.27;;;9.20;;
7169;SDS011;3626;42.656;23.312;2023-03-14T00:24:52;18.52;;;9.18;;
7169;SDS011;3626;42.656;23.312;2023-03-14T00:24:58;18.15;;;8.95;;
7169;SDS011;3626;42.656;23.312;2023-03-14T00:25:04;17.23;;;8.67;;
7169;SDS011;3626;42.656;23.312;2023-03-14T00:25:12;15.95;;;8.47;;
7169;SDS011;3626;42.656;23.312;2023-03-14T00:25:18;15.48;;;8.40;;
7169;SDS011;3626;42.656;23.312;2023-03-14T00:25:24;15.38;;;8.40;;
7169;SDS011;3626;42.656;23.312;2023-03-14T00:25:30;16.23;;;8.55;;
7169;SDS011;3626;42.656;23.312;2023-03-14T00:25:39;16.93;;;8.60;;
7169;SDS011;3626;42.656;23.312;2023-03-14T00:25:45;17.02;;;8.68;;
7169;SDS011;3626;42.656;23.312;2023-03-14T00:25:51;17.08;;;8.70;;
7169;SDS011;3626;42.656;23.312;2023-03-14T00:26:00;17.50;;;8.93;;
7169;SDS011;3626;42.656;23.312;2023-03-14T00:26:08;20.10;;;9.57;;
7169;SDS011;3626;42.656;23.312;2023-03-14T00:26:16;22.40;;;10.00;;
7169;SDS011;3626;42.656;23.312;2023-03-14T00:26:23;22.44;;;10.00;;
7169;SDS011;3626;42.656;23.312;2023-03-14T00:26:29;21.83;;;10.00;;
7169;SDS011;3626;42.656;23.312;2023-03-14T00:26:35;22.25;;;10.13;;
7169;SDS011;3626;42.656;23.312;2023-03-14T00:26:41;23.52;;;10.20;;
7169;SDS011;3626;42.656;23.312;2023-03-14T00:26:47;24.77;;;10.27;;
7169;SDS011;3626;42.656;23.312;2023-03-14T00:26:56;24.54;;;10.01;;
7169;SDS011;3626;42.656;23.312;2023-03-14T00:27:02;24.77;;;9.82;;
7169;SDS011;3626;42.656;23.312;2023-03-14T00:27:07;24.58;;;9.70;;
7169;SDS011;3626;42.656;23.312;2023-03-14T00:27:13;23.92;;;9.48;;
7169;SDS011;3626;42.656;23.312;2023-03-14T00:27:19;23.45;;;9.40;;
7169;SDS011;3626;42.656;23.312;2023-03-14T00:27:25;23.20;;;9.23;;
7169;SDS011;3626;42.656;23.312;2023-03-14T00:27:32;24.13;;;9.18;;
7169;SDS011;3626;42.656;23.312;2023-03-14T00:27:38;22.78;;;8.88;;
7169;SDS011;3626;42.656;23.312;2023-03-14T00:27:44;20.97;;;8.77;;
7169;SDS011;3626;42.656;23.312;2023-03-14T00:27:50;20.48;;;8.77;;
7169;SDS011;3626;42.656;23.312;2023-03-14T00:27:59;21.31;;;8.83;;
7169;SDS011;3626;42.656;23.312;2023-03-14T00:28:05;19.77;;;8.65;;
7169;SDS011;3626;42.656;23.312;2023-03-14T00:28:11;19.57;;;8.87;;
7169;SDS011;3626;42.656;23.312;2023-03-14T00:28:18;20.77;;;9.25;;
7169;SDS011;3626;42.656;23.312;2023-03-14T00:28:24;22.63;;;9.43;;
7169;SDS011;3626;42.656;23.312;2023-03-14T00:28:30;22.13;;;9.45;;
7169;SDS011;3626;42.656;23.312;2023-03-14T00:28:36;22.88;;;9.60;;
7169;SDS011;3626;42.656;23.312;2023-03-14T00:28:42;23.00;;;9.60;;
7169;SDS011;3626;42.656;23.312;2023-03-14T00:28:50;22.58;;;9.36;;
7169;SDS011;3626;42.656;23.312;2023-03-14T00:28:58;21.60;;;9.43;;
7169;SDS011;3626;42.656;23.312;2023-03-14T00:29:05;22.35;;;9.67;;
7169;SDS011;3626;42.656;23.312;2023-03-14T00:29:11;22.25;;;9.60;;
7169;SDS011;3626;42.656;23.312;2023-03-14T00:29:17;21.77;;;9.43;;
7169;SDS011;3626;42.656;23.312;2023-03-14T00:29:23;19.85;;;9.30;;
7169;SDS011;3626;42.656;23.312;2023-03-14T00:29:28;19.60;;;9.40;;
7169;SDS011;3626;42.656;23.312;2023-03-14T00:29:34;20.02;;;9.30;;
7169;SDS011;3626;42.656;23.312;2023-03-14T00:29:42;20.30;;;9.30;;
7169;SDS011;3626;42.656;23.312;2023-03-14T00:29:48;20.73;;;9.50;;
7169;SDS011;3626;42.656;23.312;2023-03-14T00:29:54;20.50;;;9.48;;
7169;SDS011;3626;42.656;23.312;2023-03-14T00:30:00;19.93;;;9.43;;
7169;SDS011;3626;42.656;23.312;2023-03-14T00:30:06;19.10;;;9.40;;
7169;SDS011;3626;42.656;23.312;2023-03-14T00:30:13;18.50;;;9.30;;
7169;SDS011;3626;42.656;23.312;2023-03-14T00:30:19;18.30;;;9.23;;
7169;SDS011;3626;42.656;23.312;2023-03-14T00:30:28;18.77;;;9.24;;
7169;SDS011;3626;42.656;23.312;2023-03-14T00:30:34;18.40;;;9.20;;
7169;SDS011;3626;42.656;23.312;2023-03-14T00:30:42;18.43;;;9.40;;
7169;SDS011;3626;42.656;23.312;2023-03-14T00:30:48;18.50;;;9.52;;
7169;SDS011;3626;42.656;23.312;2023-03-14T00:30:54;19.67;;;9.70;;
7169;SDS011;3626;42.656;23.312;2023-03-14T00:31:02;20.20;;;9.62;;
7169;SDS011;3626;42.656;23.312;2023-03-14T00:31:09;21.08;;;9.54;;
7169;SDS011;3626;42.656;23.312;2023-03-14T00:31:16;21.45;;;9.82;;
7169;SDS011;3626;42.656;23.312;2023-03-14T00:31:22;21.42;;;9.93;;
7169;SDS011;3626;42.656;23.312;2023-03-14T00:31:28;20.80;;;9.97;;
7169;SDS011;3626;42.656;23.312;2023-03-14T00:31:34;19.65;;;9.85;;
7169;SDS011;3626;42.656;23.312;2023-03-14T00:31:41;19.96;;;9.82;;
7169;SDS011;3626;42.656;23.312;2023-03-14T00:31:47;19.75;;;9.65;;
7169;SDS011;3626;42.656;23.312;2023-03-14T00:31:53;18.55;;;9.32;;
7169;SDS011;3626;42.656;23.312;2023-03-14T00:31:58;18.58;;;9.48;;
7169;SDS011;3626;42.656;23.312;2023-03-14T00:32:05;18.16;;;9.48;;
7169;SDS011;3626;42.656;23.312;2023-03-14T00:32:11;19.77;;;9.32;;
7169;SDS011;3626;42.656;23.312;2023-03-14T00:32:17;19.63;;;9.20;;
7169;SDS011;3626;42.656;23.312;2023-03-14T00:32:25;20.36;;;9.28;;
7169;SDS011;3626;42.656;23.312;2023-03-14T00:32:31;21.53;;;9.60;;
7169;SDS011;3626;42.656;23.312;2023-03-14T00:32:37;22.07;;;9.67;;
7169;SDS011;3626;42.656;23.312;2023-03-14T00:32:43;21.90;;;9.70;;
7169;SDS011;3626;42.656;23.312;2023-03-14T00:32:49;23.23;;;10.13;;
7169;SDS011;3626;42.656;23.312;2023-03-14T00:32:55;23.85;;;10.25;;
7169;SDS011;3626;42.656;23.312;2023-03-14T00:33:01;24.13;;;10.10;;
7169;SDS011;3626;42.656;23.312;2023-03-14T00:33:07;23.80;;;10.10;;
7169;SDS011;3626;42.656;23.312;2023-03-14T00:33:12;22.33;;;10.10;;
7169;SDS011;3626;42.656;23.312;2023-03-14T00:33:18;22.70;;;10.15;;
7169;SDS011;3626;42.656;23.312;2023-03-14T00:33:27;23.23;;;10.20;;
7169;SDS011;3626;42.656;23.312;2023-03-14T00:33:33;22.75;;;10.07;;
7169;SDS011;3626;42.656;23.312;2023-03-14T00:33:42;21.63;;;10.00;;
7169;SDS011;3626;42.656;23.312;2023-03-14T00:33:50;19.90;;;9.60;;
7169;SDS011;3626;42.656;23.312;2023-03-14T00:33:59;19.53;;;9.67;;
7169;SDS011;3626;42.656;23.312;2023-03-14T00:34:05;19.72;;;9.80;;
7169;SDS011;3626;42.656;23.312;2023-03-14T00:34:11;19.85;;;9.73;;
7169;SDS011;3626;42.656;23.312;2023-03-14T00:34:17;20.00;;;9.77;;
7169;SDS011;3626;42.656;23.312;2023-03-14T00:34:23;19.08;;;9.70;;
7169;SDS011;3626;42.656;23.312;2023-03-14T00:34:29;18.50;;;9.60;;
7169;SDS011;3626;42.656;23.312;2023-03-14T00:34:36;18.95;;;9.57;;
7169;SDS011;3626;42.656;23.312;2023-03-14T00:34:42;19.07;;;9.43;;
7169;SDS011;3626;42.656;23.312;2023-03-14T00:34:51;20.43;;;9.69;;
7169;SDS011;3626;42.656;23.312;2023-03-14T00:34:57;20.73;;;9.75;;
7169;SDS011;3626;42.656;23.312;2023-03-14T00:35:03;20.38;;;9.68;;
7169;SDS011;3626;42.656;23.312;2023-03-14T00:35:09;21.33;;;9.80;;
7169;SDS011;3626;42.656;23.312;2023-03-14T00:35:16;21.60;;;9.93;;
7169;SDS011;3626;42.656;23.312;2023-03-14T00:35:22;22.82;;;10.26;;
7169;SDS011;3626;42.656;23.312;2023-03-14T00:35:28;22.95;;;10.38;;
7169;SDS011;3626;42.656;23.312;2023-03-14T00:35:34;22.17;;;10.20;;
7169;SDS011;3626;42.656;23.312;2023-03-14T00:35:40;22.63;;;10.27;;
7169;SDS011;3626;42.656;23.312;2023-03-14T00:35:51;22.08;;;10.06;;
7169;SDS011;3626;42.656;23.312;2023-03-14T00:35:59;21.96;;;9.90;;
7169;SDS011;3626;42.656;23.312;2023-03-14T00:36:07;22.08;;;9.80;;
7169;SDS011;3626;42.656;23.312;2023-03-14T00:36:16;20.69;;;9.43;;
7169;SDS011;3626;42.656;23.312;2023-03-14T00:36:25;20.09;;;9.04;;
7169;SDS011;3626;42.656;23.312;2023-03-14T00:36:31;20.90;;;9.10;;
7169;SDS011;3626;42.656;23.312;2023-03-14T00:36:37;21.88;;;9.35;;
7169;SDS011;3626;42.656;23.312;2023-03-14T00:36:44;22.20;;;9.53;;
7169;SDS011;3626;42.656;23.312;2023-03-14T00:36:50;22.98;;;9.64;;
7169;SDS011;3626;42.656;23.312;2023-03-14T00:36:56;22.77;;;9.68;;
7169;SDS011;3626;42.656;23.312;2023-03-14T00:37:02;23.05;;;9.93;;
7169;SDS011;3626;42.656;23.312;2023-03-14T00:37:08;22.88;;;10.00;;
7169;SDS011;3626;42.656;23.312;2023-03-14T00:37:14;23.08;;;10.10;;
7169;SDS011;3626;42.656;23.312;2023-03-14T00:37:19;22.33;;;10.10;;
7169;SDS011;3626;42.656;23.312;2023-03-14T00:37:26;22.60;;;10.03;;
7169;SDS011;3626;42.656;23.312;2023-03-14T00:37:32;21.47;;;9.97;;
7169;SDS011;3626;42.656;23.312;2023-03-14T00:37:39;20.37;;;9.70;;
7169;SDS011;3626;42.656;23.312;2023-03-14T00:37:45;20.65;;;9.80;;
7169;SDS011;3626;42.656;23.312;2023-03-14T00:37:51;20.13;;;9.70;;
7169;SDS011;3626;42.656;23.312;2023-03-14T00:37:57;19.90;;;9.50;;
7169;SDS011;3626;42.656;23.312;2023-03-14T00:38:03;19.60;;;9.25;;
7169;SDS011;3626;42.656;23.312;2023-03-14T00:38:09;19.92;;;9.20;;
7169;SDS011;3626;42.656;23.312;2023-03-14T00:38:15;20.92;;;9.40;;
7169;SDS011;3626;42.656;23.312;2023-03-14T00:38:21;21.48;;;9.38;;
7169;SDS011;3626;42.656;23.312;2023-03-14T00:38:27;21.47;;;9.40;;
7169;SDS011;3626;42.656;23.312;2023-03-14T00:38:33;21.30;;;9.27;;
7169;SDS011;3626;42.656;23.312;2023-03-14T00:38:40;21.53;;;9.40;;
7169;SDS011;3626;42.656;23.312;2023-03-14T00:38:48;20.48;;;9.22;;
7169;SDS011;3626;42.656;23.312;2023-03-14T00:38:56;19.69;;;9.24;;
7169;SDS011;3626;42.656;23.312;2023-03-14T00:39:02;19.27;;;9.35;;
7169;SDS011;3626;42.656;23.312;2023-03-14T00:39:08;18.83;;;9.33;;
7169;SDS011;3626;42.656;23.312;2023-03-14T00:39:14;17.20;;;9.02;;
7169;SDS011;3626;42.656;23.312;2023-03-14T00:39:20;16.90;;;8.98;;
7169;SDS011;3626;42.656;23.312;2023-03-14T00:39:26;17.30;;;8.93;;
7169;SDS011;3626;42.656;23.312;2023-03-14T00:39:32;17.95;;;9.00;;